createdAt,value
2022-10-19T00:02:45.542Z,100.00
2022-10-19T00:05:46.847Z,100.00
2022-10-19T00:08:48.158Z,100.00
2022-10-19T00:11:50.629Z,100.00
2022-10-19T00:14:52.062Z,100.00
2022-10-19T00:17:53.584Z,100.00
2022-10-19T00:21:03.757Z,100.00
2022-10-19T00:24:06.123Z,100.00
2022-10-19T00:27:07.456Z,100.00
2022-10-19T00:30:09.024Z,100.00
2022-10-19T00:33:10.348Z,100.00
2022-10-19T00:36:18.621Z,100.00
2022-10-19T00:39:19.996Z,100.00
2022-10-19T00:42:21.375Z,100.00
2022-10-19T00:45:22.740Z,100.00
2022-10-19T00:48:31.566Z,100.00
2022-10-19T00:51:37.712Z,100.00
2022-10-19T00:54:42.349Z,100.00
2022-10-19T00:57:43.754Z,100.00
2022-10-19T01:00:45.522Z,100.00
2022-10-19T01:03:46.892Z,100.00
2022-10-19T01:06:48.286Z,100.00
2022-10-19T01:09:49.801Z,100.00
2022-10-19T01:13:26.447Z,100.00
2022-10-19T01:16:36.521Z,100.00
2022-10-19T01:20:12.171Z,100.00
2022-10-19T01:23:51.194Z,100.00
2022-10-19T01:27:14.714Z,100.00
2022-10-19T01:30:48.326Z,100.00
2022-10-19T01:34:09.522Z,100.00
2022-10-19T01:37:18.106Z,100.00
2022-10-19T01:40:34.466Z,100.00
2022-10-19T01:43:38.801Z,100.00
2022-10-19T01:46:43.838Z,100.00
2022-10-19T01:50:01.683Z,100.00
2022-10-19T01:53:06.126Z,100.00
2022-10-19T01:56:09.110Z,100.00
2022-10-19T01:59:12.126Z,100.00
2022-10-19T02:02:14.915Z,100.00
2022-10-19T02:05:20.048Z,100.00
2022-10-19T02:08:27.871Z,100.00
2022-10-19T02:11:31.179Z,100.00
2022-10-19T02:14:35.867Z,100.00
2022-10-19T02:17:42.263Z,100.00
2022-10-19T02:20:43.667Z,100.00
2022-10-19T02:23:45.059Z,100.00
2022-10-19T02:26:46.535Z,100.00
2022-10-19T02:29:47.983Z,100.00
2022-10-19T02:32:49.876Z,100.00
2022-10-19T02:35:51.191Z,100.00
2022-10-19T02:38:52.669Z,100.00
2022-10-19T02:42:07.564Z,100.00
2022-10-19T02:45:32.854Z,100.00
2022-10-19T02:48:37.748Z,100.00
2022-10-19T02:51:54.620Z,100.00
2022-10-19T02:54:56.009Z,100.00
2022-10-19T02:57:57.515Z,100.00
2022-10-19T03:00:58.914Z,100.00
2022-10-19T03:04:00.264Z,100.00
2022-10-19T03:07:01.608Z,100.00
2022-10-19T03:10:03.681Z,100.00
2022-10-19T03:13:05.133Z,100.00
2022-10-19T03:16:15.277Z,100.00
2022-10-19T03:19:16.629Z,100.00
2022-10-19T03:22:18.061Z,100.00
2022-10-19T03:25:19.446Z,100.00
2022-10-19T03:28:20.778Z,100.00
2022-10-19T03:31:22.164Z,100.00
2022-10-19T03:34:23.499Z,100.00
2022-10-19T03:37:24.854Z,100.00
2022-10-19T03:40:26.776Z,100.00
2022-10-19T03:43:28.111Z,100.00
2022-10-19T03:46:29.995Z,100.00
2022-10-19T03:49:31.363Z,100.00
2022-10-19T03:52:32.708Z,100.00
2022-10-19T03:55:34.027Z,100.00
2022-10-19T03:58:37.235Z,100.00
2022-10-19T04:01:41.219Z,100.00
2022-10-19T04:04:42.600Z,100.00
2022-10-19T04:07:43.914Z,100.00
2022-10-19T04:10:45.250Z,100.00
2022-10-19T04:13:53.315Z,100.00
2022-10-19T04:16:54.707Z,100.00
2022-10-19T04:19:56.043Z,100.00
2022-10-19T04:22:57.387Z,100.00
2022-10-19T04:26:05.021Z,100.00
2022-10-19T04:29:06.502Z,100.00
2022-10-19T04:32:07.932Z,100.00
2022-10-19T04:35:09.396Z,100.00
2022-10-19T04:38:10.736Z,100.00
2022-10-19T04:41:14.616Z,100.00
2022-10-19T04:44:16.002Z,100.00
2022-10-19T04:47:17.406Z,100.00
2022-10-19T04:50:18.900Z,100.00
2022-10-19T04:53:20.292Z,100.00
2022-10-19T04:56:23.309Z,100.00
2022-10-19T04:59:24.661Z,100.00
2022-10-19T05:02:25.993Z,100.00
2022-10-19T05:05:27.317Z,100.00
2022-10-19T05:08:28.701Z,100.00
2022-10-19T05:11:30.105Z,100.00
2022-10-19T05:14:35.018Z,100.00
2022-10-19T05:17:38.126Z,100.00
2022-10-19T05:20:39.482Z,100.00
2022-10-19T05:23:42.162Z,100.00
2022-10-19T05:26:43.496Z,100.00
2022-10-19T05:29:44.843Z,100.00
2022-10-19T05:32:46.194Z,100.00
2022-10-19T05:35:47.576Z,100.00
2022-10-19T05:38:49.898Z,100.00
2022-10-19T05:41:51.227Z,100.00
2022-10-19T05:44:52.566Z,100.00
2022-10-19T05:47:53.907Z,100.00
2022-10-19T05:50:55.367Z,100.00
2022-10-19T05:53:57.255Z,100.00
2022-10-19T05:56:58.616Z,100.00
2022-10-19T05:59:59.959Z,100.00
2022-10-19T06:03:01.299Z,100.00
2022-10-19T06:06:04.303Z,100.00
2022-10-19T06:09:05.729Z,100.00
2022-10-19T06:12:07.092Z,100.00
2022-10-19T06:15:08.781Z,100.00
2022-10-19T06:18:12.193Z,100.00
2022-10-19T06:21:15.627Z,100.00
2022-10-19T06:24:16.994Z,100.00
2022-10-19T06:27:18.415Z,100.00
2022-10-19T06:30:19.877Z,100.00
2022-10-19T06:33:21.244Z,100.00
2022-10-19T06:36:25.331Z,100.00
2022-10-19T06:39:26.649Z,100.00
2022-10-19T06:42:27.977Z,100.00
2022-10-19T06:45:32.282Z,100.00
2022-10-19T06:48:37.370Z,100.00
2022-10-19T06:51:38.742Z,100.00
2022-10-19T06:54:40.093Z,100.00
2022-10-19T06:57:41.445Z,100.00
2022-10-19T07:00:42.877Z,100.00
2022-10-19T07:03:44.266Z,100.00
2022-10-19T07:06:45.666Z,100.00
2022-10-19T07:09:48.180Z,100.00
2022-10-19T07:12:49.519Z,100.00
2022-10-19T07:16:00.155Z,100.00
2022-10-19T07:19:01.518Z,100.00
2022-10-19T07:22:03.135Z,100.00
2022-10-19T07:25:04.848Z,100.00
2022-10-19T07:28:06.183Z,100.00
2022-10-19T07:31:10.294Z,100.00
2022-10-19T07:34:12.971Z,100.00
2022-10-19T07:37:14.315Z,100.00
2022-10-19T07:40:15.719Z,100.00
2022-10-19T07:43:17.047Z,100.00
2022-10-19T07:46:21.603Z,100.00
2022-10-19T07:49:22.972Z,100.00
2022-10-19T07:52:24.416Z,100.00
2022-10-19T07:55:25.751Z,100.00
2022-10-19T07:58:27.112Z,100.00
2022-10-19T08:01:31.186Z,100.00
2022-10-19T08:07:53.844Z,100.00
2022-10-19T08:10:55.660Z,100.00
2022-10-19T08:13:57.097Z,100.00
2022-10-19T08:16:58.480Z,100.00
2022-10-19T08:19:59.841Z,100.00
2022-10-19T08:23:01.160Z,100.00
2022-10-19T08:26:02.673Z,100.00
2022-10-19T08:29:06.394Z,100.00
2022-10-19T08:32:07.710Z,100.00
2022-10-19T08:35:10.866Z,100.00
2022-10-19T08:38:12.269Z,100.00
2022-10-19T08:41:22.713Z,100.00
2022-10-19T08:44:24.002Z,100.00
2022-10-19T08:47:47.333Z,100.00
2022-10-19T08:50:48.976Z,100.00
2022-10-19T08:53:55.480Z,100.00
2022-10-19T08:57:23.110Z,100.00
2022-10-19T09:00:36.706Z,100.00
2022-10-19T09:03:55.859Z,100.00
2022-10-19T09:07:09.643Z,100.00
2022-10-19T09:10:14.040Z,100.00
2022-10-19T09:13:53.247Z,98.58
2022-10-19T09:17:05.948Z,94.02
2022-10-19T09:20:23.230Z,93.15
2022-10-19T09:23:27.579Z,91.26
2022-10-19T09:26:32.572Z,90.98
2022-10-19T09:29:43.716Z,88.90
2022-10-19T09:32:45.262Z,86.27
2022-10-19T09:35:47.612Z,84.83
2022-10-19T09:38:49.760Z,83.80
2022-10-19T09:42:01.008Z,83.60
2022-10-19T09:45:26.210Z,84.21
2022-10-19T09:48:41.543Z,86.20
2022-10-19T09:51:52.756Z,88.62
2022-10-19T09:55:07.020Z,91.08
2022-10-19T09:58:14.408Z,92.40
2022-10-19T10:01:43.158Z,89.20
2022-10-19T10:04:56.420Z,86.76
2022-10-19T10:07:57.885Z,87.41
2022-10-19T10:11:04.245Z,84.14
2022-10-19T10:14:21.470Z,83.11
2022-10-19T10:17:29.397Z,82.49
2022-10-19T10:20:32.106Z,81.97
2022-10-19T10:23:34.349Z,82.78
2022-10-19T10:26:42.122Z,81.40
2022-10-19T10:33:08.041Z,79.33
2022-10-19T10:36:24.562Z,78.61
2022-10-19T10:39:27.602Z,78.69
2022-10-19T10:42:41.390Z,77.52
2022-10-19T10:45:46.870Z,77.85
2022-10-19T10:48:55.639Z,77.13
2022-10-19T10:52:00.227Z,77.88
2022-10-19T10:55:10.819Z,77.35
2022-10-19T10:58:18.355Z,78.31
2022-10-19T11:01:22.788Z,76.69
2022-10-19T11:04:28.267Z,75.14
2022-10-19T11:07:33.486Z,74.80
2022-10-19T11:11:01.828Z,76.30
2022-10-19T11:14:24.963Z,77.63
2022-10-19T11:17:30.883Z,76.33
2022-10-19T11:20:35.105Z,77.83
2022-10-19T11:24:14.744Z,76.78
2022-10-19T11:27:41.748Z,78.57
2022-10-19T11:31:13.015Z,80.13
2022-10-19T11:34:32.499Z,80.89
2022-10-19T11:38:18.338Z,79.54
2022-10-19T11:41:38.949Z,80.37
2022-10-19T11:44:54.465Z,78.37
2022-10-19T11:48:04.778Z,77.40
2022-10-19T11:51:21.709Z,78.27
2022-10-19T11:54:32.680Z,77.85
2022-10-19T11:57:54.228Z,76.64
2022-10-19T12:01:08.029Z,76.50
2022-10-19T12:04:42.313Z,74.80
2022-10-19T12:08:05.184Z,74.68
2022-10-19T12:11:40.928Z,71.09
2022-10-19T12:14:46.462Z,70.73
2022-10-19T12:17:51.755Z,71.76
2022-10-19T12:20:57.723Z,73.12
2022-10-19T12:24:02.646Z,74.43
2022-10-19T12:27:05.055Z,75.17
2022-10-19T12:30:13.271Z,75.80
2022-10-19T12:33:31.183Z,75.10
2022-10-19T12:36:52.498Z,74.55
2022-10-19T12:40:03.210Z,77.57
2022-10-19T12:43:18.924Z,78.08
2022-10-19T12:46:39.807Z,78.69
2022-10-19T12:49:51.376Z,77.77
2022-10-19T12:52:52.775Z,76.43
2022-10-19T12:56:11.539Z,74.92
2022-10-19T12:59:23.961Z,72.75
2022-10-19T13:02:30.364Z,75.13
2022-10-19T13:05:34.446Z,75.87
2022-10-19T13:08:47.139Z,76.73
2022-10-19T13:12:16.472Z,78.12
2022-10-19T13:15:33.658Z,79.22
2022-10-19T13:19:00.115Z,78.18
2022-10-19T13:22:01.412Z,78.44
2022-10-19T13:25:24.160Z,77.24
2022-10-19T13:28:28.575Z,77.81
2022-10-19T13:31:31.392Z,78.54
2022-10-19T13:34:32.825Z,77.00
2022-10-19T13:37:34.864Z,77.42
2022-10-19T13:40:48.290Z,74.47
2022-10-19T13:43:59.465Z,74.19
2022-10-19T13:47:18.489Z,76.91
2022-10-19T13:50:31.841Z,78.12
2022-10-19T13:53:56.725Z,77.19
2022-10-19T13:57:23.129Z,77.44
2022-10-19T14:00:30.559Z,77.00
2022-10-19T14:03:50.672Z,74.96
2022-10-19T14:06:57.170Z,74.92
2022-10-19T14:10:11.964Z,73.38
2022-10-19T14:13:14.750Z,73.05
2022-10-19T14:16:21.033Z,72.21
2022-10-19T14:19:41.515Z,71.51
2022-10-19T14:22:42.843Z,72.53
2022-10-19T14:25:55.514Z,71.88
2022-10-19T14:28:59.335Z,72.36
2022-10-19T14:32:00.751Z,73.28
2022-10-19T14:35:20.319Z,72.00
2022-10-19T14:38:36.899Z,72.64
2022-10-19T14:41:38.248Z,73.58
2022-10-19T14:44:42.881Z,73.35
2022-10-19T14:47:54.361Z,72.85
2022-10-19T14:50:57.427Z,72.08
2022-10-19T14:54:12.224Z,71.43
2022-10-19T14:57:25.547Z,71.68
2022-10-19T15:00:28.004Z,68.43
2022-10-19T15:03:30.860Z,72.19
2022-10-19T15:06:34.040Z,72.42
2022-10-19T15:09:47.794Z,70.37
2022-10-19T15:12:52.621Z,73.08
2022-10-19T15:15:54.876Z,73.72
2022-10-19T15:18:56.310Z,75.19
2022-10-19T15:22:19.328Z,74.79
2022-10-19T15:25:31.873Z,76.34
2022-10-19T15:28:40.646Z,76.92
2022-10-19T15:31:43.142Z,77.19
2022-10-19T15:34:45.842Z,77.40
2022-10-19T15:37:49.183Z,78.37
2022-10-19T15:40:57.397Z,79.20
2022-10-19T15:44:00.050Z,81.08
2022-10-19T15:47:16.654Z,81.88
2022-10-19T15:50:36.379Z,83.47
2022-10-19T15:53:37.710Z,84.93
2022-10-19T15:56:40.135Z,85.64
2022-10-19T15:59:41.478Z,87.18
2022-10-19T16:02:43.380Z,89.11
2022-10-19T16:05:44.735Z,90.53
2022-10-19T16:08:46.691Z,91.75
2022-10-19T16:11:48.532Z,93.25
2022-10-19T16:14:50.088Z,94.56
2022-10-19T16:17:58.249Z,94.57
2022-10-19T16:21:00.142Z,94.41
2022-10-19T16:24:01.719Z,94.41
2022-10-19T16:27:03.302Z,94.48
2022-10-19T16:30:05.640Z,94.90
2022-10-19T16:33:07.030Z,94.70
2022-10-19T16:36:08.718Z,94.93
2022-10-19T16:39:10.042Z,95.30
2022-10-19T16:42:11.378Z,95.34
2022-10-19T16:45:12.734Z,95.88
2022-10-19T16:48:14.075Z,96.94
2022-10-19T16:51:20.643Z,98.00
2022-10-19T16:54:22.047Z,99.45
2022-10-19T16:57:23.427Z,100.00
2022-10-19T17:00:24.756Z,100.00
2022-10-19T17:03:26.156Z,100.00
2022-10-19T17:06:28.153Z,100.00
2022-10-19T17:09:41.244Z,100.00
2022-10-19T17:12:43.965Z,100.00
2022-10-19T17:15:45.344Z,100.00
2022-10-19T17:18:47.788Z,99.96
2022-10-19T17:21:49.594Z,99.78
2022-10-19T17:24:51.182Z,99.75
2022-10-19T17:27:52.577Z,99.66
2022-10-19T17:30:54.258Z,100.00
2022-10-19T17:33:56.120Z,100.00
2022-10-19T17:36:57.469Z,100.00
2022-10-19T17:39:58.849Z,100.00
2022-10-19T17:43:00.181Z,100.00
2022-10-19T17:46:03.530Z,100.00
2022-10-19T17:49:04.952Z,100.00
2022-10-19T17:52:06.293Z,100.00
2022-10-19T17:55:12.317Z,100.00
2022-10-19T17:58:14.090Z,100.00
2022-10-19T18:01:17.195Z,100.00
2022-10-19T18:04:18.541Z,100.00
2022-10-19T18:07:19.912Z,100.00
2022-10-19T18:10:21.252Z,100.00
2022-10-19T18:13:22.609Z,100.00
2022-10-19T18:16:32.960Z,100.00
2022-10-19T18:19:34.406Z,100.00
2022-10-19T18:22:35.814Z,100.00
2022-10-19T18:25:53.559Z,100.00
2022-10-19T18:28:57.303Z,100.00
2022-10-19T18:31:58.768Z,100.00
2022-10-19T18:35:00.150Z,100.00
2022-10-19T18:38:01.928Z,100.00
2022-10-19T18:41:05.979Z,100.00
2022-10-19T18:44:12.643Z,100.00
2022-10-19T18:47:13.986Z,100.00
2022-10-19T18:53:22.198Z,100.00
2022-10-19T18:56:24.405Z,100.00
2022-10-19T19:02:35.421Z,100.00
2022-10-19T19:05:47.368Z,100.00
2022-10-19T19:08:49.330Z,100.00
2022-10-19T19:11:50.692Z,100.00
2022-10-19T19:14:52.024Z,100.00
2022-10-19T19:17:54.497Z,100.00
2022-10-19T19:20:55.869Z,100.00
2022-10-19T19:24:00.209Z,100.00
2022-10-19T19:27:01.581Z,100.00
2022-10-19T19:30:03.831Z,100.00
2022-10-19T19:33:05.169Z,100.00
2022-10-19T19:36:08.437Z,100.00
2022-10-19T19:39:09.804Z,100.00
2022-10-19T19:42:11.190Z,100.00
2022-10-19T19:45:12.594Z,100.00
2022-10-19T19:48:13.933Z,100.00
2022-10-19T19:51:20.441Z,100.00
2022-10-19T19:54:21.934Z,100.00
2022-10-19T19:57:23.273Z,100.00
2022-10-19T20:00:24.913Z,100.00
2022-10-19T20:03:26.307Z,100.00
2022-10-19T20:06:28.119Z,100.00
2022-10-19T20:09:29.483Z,100.00
2022-10-19T20:12:30.854Z,100.00
2022-10-19T20:15:32.219Z,100.00
2022-10-19T20:18:33.589Z,100.00
2022-10-19T20:21:35.115Z,100.00
2022-10-19T20:24:37.711Z,100.00
2022-10-19T20:27:39.299Z,100.00
2022-10-19T20:30:40.691Z,100.00
2022-10-19T20:33:43.172Z,100.00
2022-10-19T20:36:44.506Z,100.00
2022-10-19T20:39:47.088Z,100.00
2022-10-19T20:42:48.412Z,100.00
2022-10-19T20:45:49.745Z,100.00
2022-10-19T20:48:51.327Z,100.00
2022-10-19T20:51:54.164Z,100.00
2022-10-19T20:54:55.532Z,100.00
2022-10-19T20:57:56.841Z,100.00
2022-10-19T21:01:07.733Z,100.00
2022-10-19T21:04:11.732Z,100.00
2022-10-19T21:07:13.102Z,100.00
2022-10-19T21:10:14.420Z,100.00
2022-10-19T21:13:15.753Z,100.00
2022-10-19T21:16:19.144Z,100.00
2022-10-19T21:19:21.899Z,100.00
2022-10-19T21:22:23.233Z,100.00
2022-10-19T21:25:24.572Z,100.00
2022-10-19T21:28:25.889Z,100.00
2022-10-19T21:31:27.883Z,100.00
2022-10-19T21:34:30.597Z,100.00
2022-10-19T21:37:32.184Z,100.00
2022-10-19T21:40:35.350Z,100.00
2022-10-19T21:43:36.856Z,100.00
2022-10-19T21:46:38.246Z,100.00
2022-10-19T21:49:39.587Z,100.00
2022-10-19T21:52:40.937Z,100.00
2022-10-19T21:55:42.262Z,100.00
2022-10-19T21:58:48.354Z,100.00
2022-10-19T22:01:49.683Z,100.00
2022-10-19T22:04:51.023Z,100.00
2022-10-19T22:07:52.342Z,100.00
2022-10-19T22:10:53.707Z,100.00
2022-10-19T22:13:56.433Z,100.00
2022-10-19T22:16:57.771Z,100.00
2022-10-19T22:19:59.092Z,100.00
2022-10-19T22:23:00.420Z,100.00
2022-10-19T22:26:01.867Z,100.00
2022-10-19T22:29:05.153Z,100.00
2022-10-19T22:32:06.508Z,100.00
2022-10-19T22:35:08.086Z,100.00
2022-10-19T22:38:09.465Z,100.00
2022-10-19T22:41:10.824Z,100.00
2022-10-19T22:44:12.285Z,100.00
2022-10-19T22:47:13.604Z,100.00
2022-10-19T22:50:15.034Z,100.00
2022-10-19T22:53:16.370Z,100.00
2022-10-19T22:56:17.698Z,100.00
2022-10-19T22:59:19.046Z,100.00
2022-10-19T23:02:20.364Z,100.00
2022-10-19T23:05:21.801Z,100.00
2022-10-19T23:08:23.273Z,100.00
2022-10-19T23:11:24.641Z,100.00
2022-10-19T23:14:25.991Z,100.00
2022-10-19T23:17:27.333Z,100.00
2022-10-19T23:20:28.689Z,100.00
2022-10-19T23:23:31.381Z,100.00
2022-10-19T23:26:32.710Z,100.00
2022-10-19T23:29:34.071Z,100.00
2022-10-19T23:32:35.438Z,100.00
2022-10-19T23:35:36.778Z,100.00
2022-10-19T23:38:38.484Z,100.00
2022-10-19T23:41:39.820Z,100.00
2022-10-19T23:44:43.796Z,100.00
2022-10-19T23:47:45.119Z,100.00
2022-10-19T23:50:46.472Z,100.00
2022-10-19T23:53:49.831Z,100.00
2022-10-19T23:56:51.103Z,100.00
2022-10-19T23:59:52.746Z,100.00
